Time;durP1;ratioP1;P1;durP2;ratioP2;P2;SDS_P1;SDS_P2;PMS_P1;PMS_P2;Temp;Humidity;BMP_temperature;BMP_pressure;BME280_temperature;BME280_humidity;BME280_pressure;Samples;Min_cycle;Max_cycle;Signal;HPM_P1;HPM_P2
2023/09/18 00:00:14;;;;;;;13.13;9.38;;;;;;;19.63;49.19;100968.67;1648728;87;21376;-81
2023/09/18 00:03:24;;;;;;;13.83;9.43;;;;;;;19.81;48.86;100966.57;1648739;87;21356;-81
2023/09/18 00:06:30;;;;;;;13.62;10.20;;;;;;;19.77;48.74;100965.30;1648559;87;21348;-81
2023/09/18 00:09:36;;;;;;;11.63;9.28;;;;;;;19.68;48.73;100965.23;1649801;87;21340;-81
2023/09/18 00:12:41;;;;;;;10.60;9.48;;;;;;;19.76;48.89;100969.67;1654991;86;21930;-81
2023/09/18 00:15:48;;;;;;;14.73;9.48;;;;;;;19.76;48.73;100976.61;1656397;86;21383;-80
2023/09/18 00:18:55;;;;;;;13.65;10.23;;;;;;;19.72;48.72;100968.44;1656539;86;21644;-81
2023/09/18 00:22:01;;;;;;;14.60;9.90;;;;;;;19.78;48.44;100966.16;1655924;86;21946;-81
2023/09/18 00:25:07;;;;;;;11.57;9.80;;;;;;;19.54;48.89;100971.34;1640823;86;21316;-81
2023/09/18 00:28:13;;;;;;;11.85;9.50;;;;;;;19.47;49.09;100968.27;1645206;86;22865;-80
2023/09/18 00:31:20;;;;;;;13.25;10.48;;;;;;;19.37;49.47;100965.95;1638721;87;21915;-78
2023/09/18 00:34:26;;;;;;;15.13;9.88;;;;;;;19.33;49.87;100970.23;1639261;87;21341;-80
2023/09/18 00:37:31;;;;;;;12.13;9.78;;;;;;;19.32;50.11;100971.30;1638137;87;21337;-80
2023/09/18 00:40:36;;;;;;;12.35;10.50;;;;;;;19.19;50.57;100974.11;1637987;87;21345;-80
2023/09/18 00:43:41;;;;;;;30.68;11.70;;;;;;;19.29;50.44;100971.73;1610012;88;21329;-80
2023/09/18 00:46:47;;;;;;;23.02;10.50;;;;;;;19.25;50.40;100973.27;1623740;88;21352;-79
2023/09/18 00:49:54;;;;;;;14.35;10.38;;;;;;;19.26;50.39;100968.03;1623942;88;21971;-79
2023/09/18 00:53:02;;;;;;;11.65;10.32;;;;;;;19.29;50.26;100971.73;1623120;88;21393;-79
2023/09/18 00:56:08;;;;;;;14.07;11.43;;;;;;;19.23;50.17;100976.77;1628838;87;21321;-80
2023/09/18 00:59:13;;;;;;;18.75;10.05;;;;;;;19.30;49.86;100967.91;1638398;87;21828;-79
2023/09/18 01:02:20;;;;;;;12.37;9.25;;;;;;;19.17;50.35;100973.48;1639198;87;22238;-80
2023/09/18 01:05:26;;;;;;;13.98;10.20;;;;;;;19.24;50.00;100968.77;1639444;87;21321;-80
2023/09/18 01:08:32;;;;;;;14.43;11.15;;;;;;;19.20;50.21;100975.84;1638225;87;21361;-80
2023/09/18 01:12:02;;;;;;;17.35;11.48;;;;;;;19.06;50.58;100971.70;1629851;87;21884;-80
2023/09/18 01:15:14;;;;;;;16.15;10.45;;;;;;;19.11;50.59;100971.05;1623873;88;21876;-79
2023/09/18 01:18:19;;;;;;;16.05;11.50;;;;;;;18.85;51.17;100965.00;1623630;88;21361;-79
2023/09/18 01:21:28;;;;;;;15.78;11.30;;;;;;;18.82;51.35;100972.34;1623712;88;22443;-80
2023/09/18 01:24:34;;;;;;;14.50;10.75;;;;;;;18.60;51.99;100964.24;1623661;88;21381;-80
2023/09/18 01:27:40;;;;;;;15.18;11.95;;;;;;;18.48;52.15;100964.55;1644687;87;21330;-80
2023/09/18 01:30:46;;;;;;;13.78;11.28;;;;;;;18.65;52.16;100966.38;1676836;85;21343;-80
2023/09/18 01:33:53;;;;;;;15.50;11.75;;;;;;;18.45;52.71;100963.61;1675450;85;22068;-79
2023/09/18 01:36:59;;;;;;;16.45;10.63;;;;;;;18.37;52.92;100963.81;1676591;85;21311;-79
2023/09/18 01:40:06;;;;;;;14.38;11.45;;;;;;;18.38;52.80;100962.20;1675159;85;21307;-80
2023/09/18 01:43:11;;;;;;;20.20;11.25;;;;;;;18.47;52.46;100962.85;1675947;85;21327;-81
2023/09/18 01:46:16;;;;;;;15.13;10.55;;;;;;;18.41;52.78;100960.09;1676859;85;21367;-80
2023/09/18 01:49:21;;;;;;;15.80;11.78;;;;;;;18.39;52.88;100960.28;1675335;85;21386;-81
2023/09/18 01:52:26;;;;;;;18.50;12.05;;;;;;;18.45;52.63;100958.07;1676903;85;21343;-80
2023/09/18 01:55:32;;;;;;;16.48;11.85;;;;;;;18.52;52.63;100956.14;1677120;85;21326;-81
2023/09/18 01:58:37;;;;;;;19.20;12.55;;;;;;;18.38;53.23;100960.81;1677146;85;21356;-81
2023/09/18 02:01:44;;;;;;;14.40;11.78;;;;;;;18.58;53.20;100965.51;1676083;85;21358;-80
2023/09/18 02:04:50;;;;;;;20.37;11.75;;;;;;;18.33;53.28;100960.60;1675560;85;22029;-80
2023/09/18 02:07:57;;;;;;;17.15;11.68;;;;;;;18.48;52.66;100963.16;1676899;85;21307;-80
2023/09/18 02:11:04;;;;;;;18.37;12.40;;;;;;;18.34;53.62;100969.76;1670223;85;21356;-80
2023/09/18 02:14:10;;;;;;;16.02;11.70;;;;;;;18.10;53.77;100967.91;1676409;85;22025;-80
2023/09/18 02:17:17;;;;;;;18.05;12.35;;;;;;;18.29;53.34;100977.31;1677219;85;21327;-80
2023/09/18 02:20:23;;;;;;;19.87;13.18;;;;;;;18.43;52.65;100971.26;1676049;85;21361;-80
2023/09/18 02:23:29;;;;;;;15.28;12.25;;;;;;;18.19;54.10;100974.64;1676815;85;21332;-80
2023/09/18 02:26:35;;;;;;;16.57;12.70;;;;;;;18.13;54.48;100973.57;1668923;85;21333;-80
2023/09/18 02:29:41;;;;;;;19.10;12.10;;;;;;;18.28;53.88;100976.16;1674821;85;21411;-80
2023/09/18 02:32:47;;;;;;;15.05;12.50;;;;;;;18.22;54.57;100978.38;1674846;85;21921;-80
2023/09/18 02:35:53;;;;;;;18.55;12.60;;;;;;;18.22;54.03;100978.38;1673623;85;21358;-80
2023/09/18 02:39:00;;;;;;;24.32;13.20;;;;;;;18.23;53.81;100977.31;1673732;85;21208;-80
2023/09/18 02:42:05;;;;;;;18.07;13.60;;;;;;;18.25;54.01;100976.02;1658506;85;21343;-80
2023/09/18 02:45:13;;;;;;;16.77;13.08;;;;;;;18.24;54.91;100979.02;1645442;87;21308;-80
2023/09/18 02:48:18;;;;;;;18.02;13.40;;;;;;;18.08;55.36;100968.66;1646683;87;21332;-80
2023/09/18 02:51:23;;;;;;;17.12;12.75;;;;;;;18.07;55.64;100974.42;1645418;87;21356;-80
2023/09/18 02:54:29;;;;;;;14.78;11.90;;;;;;;18.25;55.27;100966.34;1646070;87;21938;-80
2023/09/18 02:57:35;;;;;;;18.30;13.15;;;;;;;18.24;55.22;100972.94;1651997;86;21826;-80
2023/09/18 03:00:40;;;;;;;16.82;13.38;;;;;;;18.26;54.92;100974.98;1652556;86;21331;-80
2023/09/18 03:03:46;;;;;;;16.40;12.58;;;;;;;18.39;54.93;100972.74;1653854;86;21320;-80
2023/09/18 03:06:51;;;;;;;17.82;13.13;;;;;;;18.23;55.16;100978.70;1652749;86;21902;-80
2023/09/18 03:09:57;;;;;;;23.98;13.98;;;;;;;18.23;54.49;100978.17;1653738;86;21300;-80
2023/09/18 03:13:03;;;;;;;17.23;14.15;;;;;;;18.01;54.55;100979.39;1653762;86;21312;-80
2023/09/18 03:16:08;;;;;;;16.07;13.03;;;;;;;17.90;55.38;100979.47;1653829;86;21320;-80
2023/09/18 03:19:13;;;;;;;24.07;14.45;;;;;;;18.22;54.37;100982.00;1653821;86;21890;-80
2023/09/18 03:22:19;;;;;;;21.30;13.85;;;;;;;18.09;54.30;100983.36;1653838;86;21336;-80
2023/09/18 03:25:25;;;;;;;18.32;13.62;;;;;;;18.04;54.95;100982.59;1653044;86;21296;-80
2023/09/18 03:28:31;;;;;;;20.75;13.32;;;;;;;18.02;55.30;100975.55;1652948;86;21303;-79
2023/09/18 03:31:36;;;;;;;15.58;12.53;;;;;;;18.01;55.38;100978.85;1656979;85;21580;-79
2023/09/18 03:34:43;;;;;;;23.25;13.72;;;;;;;18.04;55.38;100981.22;1662023;86;21358;-79
2023/09/18 03:37:49;;;;;;;18.77;14.15;;;;;;;18.16;55.46;100986.13;1661899;86;21350;-79
2023/09/18 03:40:55;;;;;;;24.23;14.30;;;;;;;18.15;55.73;100983.89;1655341;86;21306;-79
2023/09/18 03:44:01;;;;;;;20.88;13.75;;;;;;;18.34;55.97;100993.30;1629301;88;21924;-79
2023/09/18 03:47:07;;;;;;;23.90;14.03;;;;;;;18.39;56.01;100989.36;1650547;87;21347;-80
2023/09/18 03:50:15;;;;;;;16.07;12.95;;;;;;;18.66;55.86;100987.47;1629367;88;21342;-80
2023/09/18 03:53:21;;;;;;;19.45;15.10;;;;;;;18.56;55.82;100992.05;1650806;87;21347;-79
2023/09/18 03:56:28;;;;;;;24.00;12.93;;;;;;;18.39;56.97;100988.83;1656690;85;21331;-80
2023/09/18 03:59:33;;;;;;;23.40;13.65;;;;;;;18.67;56.12;100993.32;1688597;85;22111;-81
2023/09/18 04:02:39;;;;;;;22.82;15.38;;;;;;;19.05;55.10;100987.99;1688407;85;21362;-80
2023/09/18 04:05:45;;;;;;;22.67;14.03;;;;;;;19.14;55.52;100994.17;1688542;85;21353;-80
2023/09/18 04:08:51;;;;;;;17.48;13.18;;;;;;;19.40;55.43;100989.11;1688640;85;22008;-80
2023/09/18 04:11:49;;;;;;;22.85;13.62;;;;;;;19.26;55.17;100991.06;1669729;85;21326;-80
2023/09/18 04:14:42;;;;;;;20.32;14.03;;;;;;;19.17;55.32;100985.97;1679902;85;21407;-80
2023/09/18 04:17:29;;;;;;;22.22;15.55;;;;;;;19.37;55.13;100984.83;1632221;88;21339;-80
2023/09/18 04:20:22;;;;;;;24.90;14.73;;;;;;;19.38;55.65;100989.84;1632302;88;21687;-81
2023/09/18 04:23:30;;;;;;;20.00;15.63;;;;;;;19.38;56.34;100992.62;1633623;88;21378;-81
2023/09/18 04:26:37;;;;;;;19.35;14.33;;;;;;;19.14;57.92;100992.78;1630570;88;22508;-81
2023/09/18 04:29:44;;;;;;;19.42;14.35;;;;;;;19.40;58.40;100990.50;1658926;86;21857;-80
2023/09/18 04:32:51;;;;;;;20.32;12.43;;;;;;;19.63;58.51;100988.10;1649450;86;21350;-80
2023/09/18 04:35:59;;;;;;;20.55;13.10;;;;;;;19.85;58.60;100994.71;1643281;87;21347;-81
2023/09/18 04:39:05;;;;;;;18.15;14.20;;;;;;;19.91;59.19;100995.24;1643940;87;21625;-81
2023/09/18 04:42:11;;;;;;;19.10;13.13;;;;;;;20.25;58.94;100995.90;1668677;85;21629;-81
2023/09/18 04:45:18;;;;;;;24.02;13.68;;;;;;;20.41;58.62;100994.80;1675692;85;21383;-81
2023/09/18 04:48:24;;;;;;;18.62;13.80;;;;;;;20.62;58.37;101000.58;1675752;85;21379;-81
2023/09/18 04:51:29;;;;;;;20.82;13.68;;;;;;;20.74;58.22;100995.12;1675650;85;21400;-81
2023/09/18 04:54:35;;;;;;;14.00;11.70;;;;;;;21.08;57.57;100986.81;1675663;85;21369;-81
2023/09/18 04:57:41;;;;;;;15.98;11.68;;;;;;;21.35;56.69;100990.72;1676938;85;22311;-81
2023/09/18 05:00:46;;;;;;;16.93;10.78;;;;;;;21.50;56.20;100985.64;1675714;85;21377;-80
2023/09/18 05:03:52;;;;;;;16.52;11.18;;;;;;;21.91;54.75;100986.27;1658102;85;21379;-79
2023/09/18 05:06:57;;;;;;;14.90;10.85;;;;;;;22.10;54.07;100987.62;1643519;87;21708;-81
2023/09/18 05:10:07;;;;;;;18.75;10.68;;;;;;;22.46;52.85;100988.09;1642743;87;21308;-81
2023/09/18 05:13:22;;;;;;;21.20;9.73;;;;;;;22.70;52.08;100988.44;1643771;87;21265;-81
2023/09/18 05:16:30;;;;;;;15.85;10.60;;;;;;;22.57;51.90;100991.98;1639779;87;21304;-80
2023/09/18 05:19:38;;;;;;;14.00;10.43;;;;;;;22.46;51.98;100990.88;1639145;87;21308;-80
2023/09/18 05:22:43;;;;;;;16.45;10.93;;;;;;;22.83;50.52;100992.11;1648477;87;21346;-80
2023/09/18 05:25:51;;;;;;;16.75;9.68;;;;;;;23.01;50.61;100992.03;1653468;85;21299;-80
2023/09/18 05:28:57;;;;;;;15.58;9.05;;;;;;;23.12;50.07;100993.96;1645738;87;21334;-80
2023/09/18 05:32:03;;;;;;;14.53;9.13;;;;;;;23.33;49.32;100988.84;1611900;87;21883;-81
2023/09/18 05:35:14;;;;;;;12.63;8.53;;;;;;;23.62;48.68;100990.64;1644460;86;21356;-81
2023/09/18 05:38:20;;;;;;;20.37;10.40;;;;;;;23.83;47.69;100993.33;1642407;85;21357;-80
2023/09/18 05:41:28;;;;;;;17.23;9.18;;;;;;;24.04;47.47;100997.38;1627054;86;21371;-81
2023/09/18 05:44:33;;;;;;;15.78;8.35;;;;;;;24.16;46.79;101000.98;1656581;84;21332;-81
2023/09/18 05:47:42;;;;;;;15.05;8.40;;;;;;;24.21;46.55;100995.49;1661781;84;21326;-81
2023/09/18 05:50:53;;;;;;;10.43;7.42;;;;;;;24.48;45.61;100995.76;1667207;84;21187;-82
2023/09/18 05:53:59;;;;;;;12.65;7.72;;;;;;;24.66;44.66;100997.48;1666621;85;21329;-80
2023/09/18 05:57:09;;;;;;;11.45;7.70;;;;;;;24.82;43.71;100990.73;1659502;85;21320;-80
2023/09/18 06:00:19;;;;;;;14.05;7.22;;;;;;;24.84;43.74;100989.92;1621096;86;26100;-80
2023/09/18 06:03:24;;;;;;;11.75;6.30;;;;;;;24.99;42.83;100994.39;1570268;89;22447;-80
2023/09/18 06:06:37;;;;;;;9.55;6.42;;;;;;;24.70;42.25;100994.47;1591043;88;21378;-79
2023/09/18 06:09:43;;;;;;;11.15;6.28;;;;;;;24.53;42.15;100990.80;1612288;87;21364;-81
2023/09/18 06:12:55;;;;;;;11.78;6.97;;;;;;;24.64;41.80;100987.62;1614067;87;21328;-80
2023/09/18 06:16:07;;;;;;;9.38;6.58;;;;;;;24.71;42.24;100994.77;1607991;87;22511;-80
2023/09/18 06:19:13;;;;;;;9.45;6.58;;;;;;;24.95;41.85;101001.59;1608799;87;21324;-80
2023/09/18 06:22:37;;;;;;;11.83;6.05;;;;;;;25.27;41.52;100989.81;1608874;87;21979;-79
2023/09/18 06:25:45;;;;;;;7.80;5.17;;;;;;;25.43;41.25;100998.16;1609780;88;21306;-80
2023/09/18 06:28:51;;;;;;;15.93;5.97;;;;;;;25.52;39.00;100998.56;1614058;87;21310;-80
2023/09/18 06:32:01;;;;;;;11.50;5.92;;;;;;;25.62;38.78;101002.89;1610184;87;21325;-79
2023/09/18 06:35:08;;;;;;;15.03;6.22;;;;;;;25.72;38.53;101004.42;1586489;88;21247;-79
2023/09/18 06:38:15;;;;;;;13.78;6.25;;;;;;;25.94;37.66;101005.87;1588621;88;21247;-80
2023/09/18 06:41:21;;;;;;;22.87;6.47;;;;;;;26.14;36.92;101012.27;1582467;88;21366;-80
2023/09/18 06:44:28;;;;;;;13.22;7.10;;;;;;;25.79;37.43;101008.48;1585285;88;21238;-79
2023/09/18 06:47:50;;;;;;;13.05;6.10;;;;;;;25.76;37.89;101006.75;1560908;90;21412;-80
2023/09/18 06:50:56;;;;;;;14.20;6.60;;;;;;;26.08;37.10;101013.32;1558363;90;21365;-79
2023/09/18 06:54:02;;;;;;;11.15;6.62;;;;;;;26.08;37.34;101012.48;1586881;89;21393;-79
2023/09/18 06:57:08;;;;;;;15.35;6.78;;;;;;;25.96;37.73;101014.00;1585760;88;21693;-79
2023/09/18 07:00:18;;;;;;;11.65;5.40;;;;;;;26.22;36.97;101014.61;1605010;87;50044;-79
2023/09/18 07:03:23;;;;;;;15.20;5.28;;;;;;;26.15;36.16;101013.95;1623046;87;22909;-80
2023/09/18 07:06:30;;;;;;;11.00;4.87;;;;;;;26.28;35.47;101011.86;1626549;87;21350;-80
2023/09/18 07:09:36;;;;;;;14.90;5.40;;;;;;;26.17;34.39;101013.15;1619795;87;21342;-80
2023/09/18 07:12:47;;;;;;;13.28;5.53;;;;;;;26.39;34.20;101015.05;1622871;87;21354;-79
2023/09/18 07:15:52;;;;;;;5.97;4.78;;;;;;;26.28;35.18;101014.66;1623631;87;22199;-79
2023/09/18 07:18:58;;;;;;;9.80;4.12;;;;;;;26.42;34.40;101013.13;1619742;87;21214;-80
2023/09/18 07:22:04;;;;;;;7.40;4.45;;;;;;;26.43;34.21;101014.28;1623032;87;21957;-80
2023/09/18 07:25:09;;;;;;;12.50;4.70;;;;;;;26.60;33.45;101013.34;1626672;87;21343;-79
2023/09/18 07:28:19;;;;;;;10.25;4.40;;;;;;;26.82;33.52;101014.64;1621072;87;21299;-79
2023/09/18 07:31:25;;;;;;;9.73;4.30;;;;;;;26.76;33.37;101017.41;1596893;88;21327;-79
2023/09/18 07:34:31;;;;;;;11.00;5.03;;;;;;;26.79;33.14;101016.05;1586744;88;21926;-79
2023/09/18 07:37:37;;;;;;;8.73;4.95;;;;;;;26.73;33.33;101013.75;1619471;87;21384;-79
2023/09/18 07:40:44;;;;;;;11.83;4.78;;;;;;;26.93;33.16;101006.62;1608453;87;21383;-79
2023/09/18 07:43:50;;;;;;;6.45;3.72;;;;;;;26.84;33.03;101012.44;1609614;87;21258;-80
2023/09/18 07:46:56;;;;;;;8.98;4.10;;;;;;;27.00;32.07;101005.81;1614500;87;22412;-79
2023/09/18 07:50:02;;;;;;;7.08;4.55;;;;;;;26.89;31.78;101011.08;1611251;87;21250;-78
2023/09/18 07:53:09;;;;;;;10.00;5.22;;;;;;;26.95;32.69;101015.05;1612479;87;22272;-81
2023/09/18 07:56:14;;;;;;;9.33;4.30;;;;;;;27.12;32.27;101009.33;1606534;87;21273;-80
2023/09/18 07:59:20;;;;;;;7.25;4.05;;;;;;;27.21;31.61;101006.30;1610412;87;32355;-81
2023/09/18 08:02:34;;;;;;;8.88;3.50;;;;;;;27.24;31.10;101004.37;1603601;87;21737;-78
2023/09/18 08:05:41;;;;;;;9.40;3.58;;;;;;;27.24;29.96;101009.11;1624927;86;21952;-80
2023/09/18 08:08:47;;;;;;;12.98;3.90;;;;;;;27.42;30.39;101000.80;1627787;86;21776;-79
2023/09/18 08:11:55;;;;;;;6.22;3.75;;;;;;;27.53;31.60;100997.52;1622521;86;21378;-79
2023/09/18 08:15:03;;;;;;;12.15;3.50;;;;;;;27.63;31.86;100998.97;1624914;87;21968;-80
2023/09/18 08:18:13;;;;;;;8.50;4.27;;;;;;;27.52;30.09;101000.86;1625390;86;21375;-79
2023/09/18 08:21:19;;;;;;;5.67;3.65;;;;;;;27.52;30.09;101000.86;1623407;87;21339;-80
2023/09/18 08:24:25;;;;;;;17.90;3.95;;;;;;;27.69;29.53;100991.69;1620173;87;21331;-80
2023/09/18 08:27:32;;;;;;;8.23;3.08;;;;;;;27.93;29.27;100999.13;1619859;86;21343;-80
2023/09/18 08:30:40;;;;;;;5.87;3.52;;;;;;;27.87;28.23;100997.98;1627357;86;21320;-80
2023/09/18 08:33:49;;;;;;;5.10;3.37;;;;;;;27.63;28.76;100995.59;1626222;86;21366;-80
2023/09/18 08:36:54;;;;;;;4.95;3.20;;;;;;;27.70;29.00;100992.53;1631726;86;21938;-80
2023/09/18 08:40:09;;;;;;;5.97;3.17;;;;;;;27.83;28.62;100987.00;1628898;86;21235;-81
2023/09/18 08:43:10;;;;;;;8.08;3.52;;;;;;;27.85;28.38;100991.21;1602427;87;21348;-80
2023/09/18 08:46:15;;;;;;;4.08;3.50;;;;;;;27.97;28.62;100987.61;1602539;87;21347;-80
2023/09/18 08:49:21;;;;;;;4.67;3.33;;;;;;;27.87;28.77;100982.52;1579015;89;21248;-81
2023/09/18 08:52:27;;;;;;;4.35;3.30;;;;;;;27.93;28.55;100980.01;1599278;87;21343;-79
2023/09/18 08:55:33;;;;;;;3.45;2.50;;;;;;;27.87;28.48;100979.16;1571388;89;21354;-79
2023/09/18 08:58:43;;;;;;;3.12;2.45;;;;;;;27.91;27.55;100972.42;1553290;89;21609;-79
2023/09/18 09:01:49;;;;;;;7.92;3.00;;;;;;;28.08;27.26;100970.20;1576646;88;21799;-80
2023/09/18 14:50:27;;;;;;;3.85;2.95;;;;;;;27.78;25.98;100828.19;1673993;83;21881;-79
2023/09/18 14:57:35;;;;;;;2.95;2.05;;;;;;;27.75;25.96;100826.20;1670864;85;21211;-79
2023/09/18 15:00:44;;;;;;;3.10;2.50;;;;;;;27.63;26.28;100821.95;1684638;84;21362;-79
2023/09/18 15:03:49;;;;;;;3.70;2.47;;;;;;;27.67;26.30;100821.69;1700510;84;21319;-79
2023/09/18 15:06:56;;;;;;;4.62;2.45;;;;;;;27.63;26.45;100824.20;1701938;84;21342;-79
2023/09/18 15:10:05;;;;;;;3.80;2.50;;;;;;;27.72;26.27;100818.34;1701530;84;21849;-79
2023/09/18 15:13:10;;;;;;;3.98;2.47;;;;;;;27.73;26.33;100821.44;1673655;85;21354;-78
2023/09/18 15:16:16;;;;;;;6.28;3.08;;;;;;;27.74;26.42;100816.66;1672358;85;21995;-79
2023/09/18 15:19:21;;;;;;;6.10;2.80;;;;;;;27.50;26.80;100812.08;1676904;84;21901;-79
2023/09/18 15:22:26;;;;;;;8.55;2.52;;;;;;;27.40;27.04;100812.89;1699976;84;21327;-79
2023/09/18 15:25:37;;;;;;;9.23;2.60;;;;;;;27.20;27.30;100810.87;1699459;84;21865;-79
2023/09/18 15:28:40;;;;;;;6.87;2.50;;;;;;;27.21;27.39;100808.90;1692787;84;21319;-79
2023/09/18 15:31:46;;;;;;;9.33;2.55;;;;;;;27.08;27.61;100808.84;1698614;84;21319;-79
2023/09/18 15:34:52;;;;;;;5.17;2.72;;;;;;;26.74;27.97;100807.80;1699663;84;21626;-79
2023/09/18 15:37:59;;;;;;;8.45;2.87;;;;;;;26.78;28.02;100812.87;1701123;83;21338;-79
2023/09/18 15:41:04;;;;;;;5.87;2.80;;;;;;;26.65;28.25;100810.83;1699902;84;21339;-79
2023/09/18 15:44:12;;;;;;;6.45;3.22;;;;;;;26.63;28.38;100810.27;1698696;84;21367;-79
2023/09/18 15:47:17;;;;;;;6.75;2.72;;;;;;;26.51;28.51;100813.82;1700737;84;21635;-79
2023/09/18 15:50:24;;;;;;;3.45;2.40;;;;;;;26.43;28.65;100813.75;1699130;84;21343;-79
2023/09/18 15:53:31;;;;;;;7.42;2.67;;;;;;;26.36;28.69;100810.33;1700462;84;21902;-79
2023/09/18 15:56:40;;;;;;;5.30;2.75;;;;;;;26.33;28.75;100810.01;1701385;84;21295;-79
2023/09/18 15:59:46;;;;;;;5.22;2.47;;;;;;;26.09;29.03;100814.58;1701403;84;21318;-79
2023/09/18 16:02:55;;;;;;;5.12;2.58;;;;;;;26.03;29.09;100813.42;1701885;84;21313;-79
2023/09/18 16:06:04;;;;;;;3.37;2.90;;;;;;;25.87;29.27;100808.21;1700484;84;21818;-79
2023/09/18 16:09:10;;;;;;;4.05;2.77;;;;;;;25.87;29.31;100809.05;1700421;84;21323;-79
2023/09/18 16:12:16;;;;;;;3.85;2.55;;;;;;;25.62;29.65;100808.78;1700376;84;21584;-79
2023/09/18 16:15:23;;;;;;;5.08;2.52;;;;;;;25.45;29.91;100806.94;1700162;84;21340;-79
